Time;durP1;ratioP1;P1;durP2;ratioP2;P2;SDS_P1;SDS_P2;PMS_P1;PMS_P2;Temp;Humidity;BMP_temperature;BMP_pressure;BME280_temperature;BME280_humidity;BME280_pressure;Samples;Min_cycle;Max_cycle;Signal;HPM_P1;HPM_P2
2022/04/25 00:00:05;;;;;;;15.77;10.18;;;8.60;99.90;;;;;;5007155;28;20045;-77
2022/04/25 00:02:30;;;;;;;13.02;9.57;;;8.60;99.90;;;;;;5022108;28;20034;-77
2022/04/25 00:04:56;;;;;;;15.13;9.88;;;8.60;99.90;;;;;;5025898;28;20376;-77
2022/04/25 00:07:21;;;;;;;15.02;10.50;;;8.60;99.90;;;;;;5024543;28;20187;-78
2022/04/25 00:09:47;;;;;;;16.33;10.57;;;8.60;99.90;;;;;;5025429;28;20184;-78
2022/04/25 00:12:13;;;;;;;16.38;10.60;;;8.60;99.90;;;;;;5024123;28;20049;-78
2022/04/25 00:14:38;;;;;;;16.35;11.45;;;8.50;99.90;;;;;;5026393;28;20041;-78
2022/04/25 00:17:04;;;;;;;14.18;10.38;;;8.50;99.90;;;;;;5024021;28;20051;-78
2022/04/25 00:19:30;;;;;;;14.80;10.57;;;8.60;99.90;;;;;;5024896;28;20041;-78
2022/04/25 00:21:55;;;;;;;15.88;10.80;;;8.50;99.90;;;;;;5023606;28;20042;-78
2022/04/25 00:24:21;;;;;;;18.20;12.02;;;8.50;99.90;;;;;;5022990;28;20095;-78
2022/04/25 00:26:47;;;;;;;15.23;11.45;;;8.50;99.90;;;;;;5025312;28;20079;-79
2022/04/25 00:29:13;;;;;;;17.58;12.10;;;8.50;99.90;;;;;;5024380;28;20507;-78
2022/04/25 00:31:41;;;;;;;18.60;12.52;;;8.40;99.90;;;;;;5009054;28;20076;-79
2022/04/25 00:34:07;;;;;;;19.35;11.85;;;8.40;99.90;;;;;;5024944;28;20112;-78
2022/04/25 00:36:33;;;;;;;16.45;11.40;;;8.40;99.90;;;;;;5024510;28;20117;-79
2022/04/25 00:38:58;;;;;;;18.67;12.30;;;8.40;99.90;;;;;;5026111;28;20094;-79
2022/04/25 00:41:24;;;;;;;21.45;12.90;;;8.40;99.90;;;;;;5027657;28;20107;-78
2022/04/25 00:43:55;;;;;;;16.70;12.07;;;8.30;99.90;;;;;;5024459;28;20044;-79
2022/04/25 00:46:21;;;;;;;23.02;13.57;;;8.30;99.90;;;;;;5023849;28;20135;-79
2022/04/25 00:48:48;;;;;;;17.52;12.75;;;8.30;99.90;;;;;;5023166;28;20080;-79
2022/04/25 00:51:14;;;;;;;18.83;12.73;;;8.30;99.90;;;;;;5028640;28;20041;-78
2022/04/25 00:53:39;;;;;;;18.77;12.20;;;8.30;99.90;;;;;;5025928;28;20037;-78
2022/04/25 00:56:07;;;;;;;19.40;12.45;;;8.20;99.90;;;;;;5021905;28;20043;-79
2022/04/25 00:58:33;;;;;;;17.73;11.25;;;8.10;99.90;;;;;;5040547;28;20040;-79
2022/04/25 01:00:59;;;;;;;20.63;11.60;;;8.00;99.90;;;;;;5024644;28;20057;-78
2022/04/25 01:03:25;;;;;;;17.10;11.73;;;7.90;99.90;;;;;;5025363;28;20041;-78
2022/04/25 01:05:50;;;;;;;19.17;11.75;;;7.90;99.90;;;;;;5031966;28;20083;-78
2022/04/25 01:08:16;;;;;;;16.85;11.57;;;7.90;99.90;;;;;;5029273;28;20041;-78
2022/04/25 01:10:43;;;;;;;15.48;11.75;;;7.90;99.90;;;;;;5028686;28;20038;-78
2022/04/25 01:13:14;;;;;;;16.77;12.65;;;7.90;99.90;;;;;;5030690;28;20038;-79
2022/04/25 01:15:40;;;;;;;19.95;12.73;;;7.80;99.90;;;;;;5027368;28;20080;-78
2022/04/25 01:18:06;;;;;;;17.92;12.93;;;7.80;99.90;;;;;;5027636;28;20053;-78
2022/04/25 01:20:31;;;;;;;18.30;13.00;;;7.80;99.90;;;;;;5028733;28;20049;-79
2022/04/25 01:27:15;;;;;;;23.50;14.85;;;7.80;99.90;;;;;;5028789;28;20041;-78
2022/04/25 01:28:37;;;;;;;18.45;13.05;;;7.70;99.90;;;;;;5027037;28;20061;-78
2022/04/25 01:31:03;;;;;;;18.40;12.23;;;7.60;99.90;;;;;;5029598;28;20074;-79
2022/04/25 01:33:29;;;;;;;19.80;12.98;;;7.60;99.90;;;;;;5026335;28;20096;-79
2022/04/25 01:35:55;;;;;;;19.73;11.45;;;7.60;99.90;;;;;;5028345;28;20446;-78
2022/04/25 01:38:21;;;;;;;17.58;12.25;;;7.50;99.90;;;;;;5027537;28;20050;-78
2022/04/25 01:40:47;;;;;;;17.13;11.27;;;7.50;99.90;;;;;;5028824;28;20069;-78
2022/04/25 01:43:12;;;;;;;20.35;11.52;;;7.40;99.90;;;;;;5012188;28;20463;-78
2022/04/25 01:45:41;;;;;;;18.20;12.85;;;7.40;99.90;;;;;;5029094;28;20080;-78
2022/04/25 01:48:07;;;;;;;18.00;11.02;;;7.30;99.90;;;;;;5027584;28;20050;-78
2022/04/25 01:50:33;;;;;;;20.33;13.10;;;7.30;99.90;;;;;;5023547;28;20402;-78
2022/04/25 01:52:58;;;;;;;17.42;10.50;;;7.20;99.90;;;;;;5027152;28;20050;-78
2022/04/25 01:55:24;;;;;;;17.35;11.90;;;7.20;99.90;;;;;;5025896;28;20033;-78
2022/04/25 01:57:49;;;;;;;15.05;11.10;;;7.20;99.90;;;;;;5012643;28;20077;-78
2022/04/25 02:00:15;;;;;;;21.05;11.25;;;7.20;99.90;;;;;;5025612;28;20103;-78
2022/04/25 02:02:41;;;;;;;19.80;11.70;;;7.10;99.90;;;;;;5027306;28;20041;-78
2022/04/25 02:05:07;;;;;;;19.95;10.43;;;7.10;99.90;;;;;;5011710;28;20139;-78
2022/04/25 02:07:33;;;;;;;17.38;10.52;;;7.10;99.90;;;;;;5027433;28;20085;-78
2022/04/25 02:09:58;;;;;;;16.38;10.38;;;7.20;99.90;;;;;;5028903;28;20072;-78
2022/04/25 02:12:24;;;;;;;17.52;10.07;;;7.20;99.90;;;;;;5027791;28;20092;-78
2022/04/25 02:14:50;;;;;;;17.25;11.43;;;7.20;99.90;;;;;;5026474;28;20038;-78
2022/04/25 02:17:16;;;;;;;18.45;9.95;;;7.30;99.90;;;;;;5029181;28;20451;-78
2022/04/25 02:19:44;;;;;;;20.10;11.75;;;7.30;99.90;;;;;;5026578;28;20048;-78
2022/04/25 02:22:10;;;;;;;13.20;9.30;;;7.30;99.90;;;;;;5024470;28;20091;-78
2022/04/25 02:24:36;;;;;;;18.83;10.63;;;7.30;99.90;;;;;;5026737;28;20503;-78
2022/04/25 02:27:03;;;;;;;17.98;10.85;;;7.40;99.90;;;;;;5027161;28;20042;-78
2022/04/25 02:29:30;;;;;;;16.50;10.48;;;7.40;99.90;;;;;;5027173;28;20041;-78
2022/04/25 02:31:56;;;;;;;17.80;10.02;;;7.40;99.90;;;;;;5023905;28;20519;-78
2022/04/25 02:34:22;;;;;;;16.77;10.25;;;7.40;99.90;;;;;;5028650;28;20364;-78
2022/04/25 02:36:47;;;;;;;17.05;10.23;;;7.40;99.90;;;;;;5024721;28;20052;-78
2022/04/25 02:39:13;;;;;;;19.83;10.60;;;7.40;99.90;;;;;;5026409;28;20041;-78
2022/04/25 02:41:38;;;;;;;18.55;10.45;;;7.40;99.90;;;;;;5026633;28;20050;-78
2022/04/25 02:44:04;;;;;;;22.05;10.70;;;7.40;99.90;;;;;;5027815;28;20041;-77
2022/04/25 02:46:31;;;;;;;16.95;9.73;;;7.50;99.90;;;;;;5026839;28;20041;-78
2022/04/25 02:48:57;;;;;;;14.80;10.57;;;7.50;99.90;;;;;;5028248;28;20400;-77
2022/04/25 02:51:23;;;;;;;15.18;8.55;;;7.50;99.90;;;;;;5027809;28;20033;-77
2022/04/25 02:53:49;;;;;;;20.33;10.35;;;7.50;99.90;;;;;;5023665;28;20054;-77
2022/04/25 02:56:14;;;;;;;21.77;11.43;;;7.50;99.90;;;;;;5024197;28;20148;-77
2022/04/25 02:58:40;;;;;;;17.33;10.07;;;7.50;99.90;;;;;;5022891;28;20408;-78
2022/04/25 03:01:07;;;;;;;22.67;11.13;;;7.50;99.90;;;;;;5024165;28;20408;-77
2022/04/25 03:03:34;;;;;;;20.80;11.77;;;7.50;99.90;;;;;;5026403;28;20081;-78
2022/04/25 03:06:01;;;;;;;16.40;9.70;;;7.50;99.90;;;;;;5024413;28;20053;-77
2022/04/25 03:08:28;;;;;;;17.55;9.90;;;7.50;99.90;;;;;;5021566;28;20036;-77
2022/04/25 03:10:54;;;;;;;18.20;10.98;;;7.50;99.90;;;;;;5027957;28;20163;-77
2022/04/25 03:13:20;;;;;;;17.10;10.77;;;7.50;99.90;;;;;;5024767;28;20042;-77
2022/04/25 03:15:49;;;;;;;13.68;9.13;;;7.50;99.90;;;;;;5026444;28;20040;-77
2022/04/25 03:18:19;;;;;;;18.02;11.32;;;7.50;99.90;;;;;;5030277;28;20041;-77
2022/04/25 03:20:46;;;;;;;17.63;9.90;;;7.50;99.90;;;;;;5026625;28;20049;-77
2022/04/25 03:23:12;;;;;;;16.70;11.45;;;7.40;99.90;;;;;;5029682;28;20041;-77
2022/04/25 03:25:38;;;;;;;18.70;10.32;;;7.50;99.90;;;;;;5029637;28;20222;-77
2022/04/25 03:28:04;;;;;;;17.98;10.00;;;7.40;99.90;;;;;;5030408;28;20045;-77
2022/04/25 03:30:30;;;;;;;22.48;10.38;;;7.40;99.90;;;;;;5031462;28;20088;-77
2022/04/25 03:32:58;;;;;;;17.38;10.93;;;7.40;99.90;;;;;;5028723;28;20171;-77
2022/04/25 03:35:25;;;;;;;15.82;10.45;;;7.40;99.90;;;;;;5031207;28;20072;-77
2022/04/25 03:37:51;;;;;;;17.90;9.75;;;7.40;99.90;;;;;;5027947;28;20077;-77
2022/04/25 03:40:18;;;;;;;14.88;10.93;;;7.40;99.90;;;;;;5013019;28;20101;-77
2022/04/25 03:42:44;;;;;;;13.70;8.73;;;7.40;99.90;;;;;;5024711;28;20136;-77
2022/04/25 03:45:11;;;;;;;18.60;9.57;;;7.40;99.90;;;;;;5031465;28;20452;-77
2022/04/25 03:47:41;;;;;;;15.82;9.77;;;7.40;99.90;;;;;;5028671;28;20503;-77
2022/04/25 03:50:08;;;;;;;15.15;9.23;;;7.40;99.90;;;;;;5030376;28;20077;-77
2022/04/25 03:52:37;;;;;;;13.07;8.75;;;7.40;99.90;;;;;;5026875;28;20048;-77
2022/04/25 03:57:52;;;;;;;17.85;10.20;;;7.40;99.90;;;;;;5021957;28;20507;-76
2022/04/25 04:00:18;;;;;;;14.85;10.02;;;7.40;99.90;;;;;;5041862;28;20077;-77
2022/04/25 04:02:43;;;;;;;16.08;8.48;;;7.40;99.90;;;;;;5024784;28;20045;-77
2022/04/25 04:05:10;;;;;;;14.35;8.80;;;7.50;99.90;;;;;;5024453;28;20050;-77
2022/04/25 04:07:35;;;;;;;16.52;9.95;;;7.50;99.90;;;;;;5026871;28;20052;-77
2022/04/25 04:10:01;;;;;;;14.50;8.77;;;7.50;99.90;;;;;;5025307;28;20041;-77
2022/04/25 04:12:34;;;;;;;13.35;8.63;;;7.50;99.90;;;;;;5024769;28;20034;-77
2022/04/25 04:15:02;;;;;;;14.55;8.93;;;7.50;99.90;;;;;;5026342;28;20038;-77
2022/04/25 04:17:28;;;;;;;13.57;8.18;;;7.50;99.90;;;;;;5029018;28;20049;-77
2022/04/25 04:19:54;;;;;;;12.57;8.00;;;7.60;99.90;;;;;;5011622;28;20443;-77
2022/04/25 04:22:25;;;;;;;14.88;8.02;;;7.60;99.90;;;;;;5029774;28;20518;-77
2022/04/25 04:24:51;;;;;;;11.65;8.25;;;7.60;99.90;;;;;;5028598;28;20042;-77
2022/04/25 04:27:17;;;;;;;14.68;8.10;;;7.60;99.90;;;;;;5027805;28;20095;-77
2022/04/25 04:29:44;;;;;;;13.05;7.95;;;7.70;99.90;;;;;;5008912;28;20152;-77
2022/04/25 04:32:13;;;;;;;10.68;7.25;;;7.60;99.90;;;;;;5029956;28;20049;-77
2022/04/25 04:34:38;;;;;;;13.00;8.68;;;7.60;99.90;;;;;;5024776;28;20041;-76
2022/04/25 04:37:04;;;;;;;13.07;6.97;;;7.60;99.90;;;;;;5025611;28;20044;-76
2022/04/25 04:39:31;;;;;;;17.77;11.30;;;7.70;99.90;;;;;;5027641;28;20049;-77
2022/04/25 04:41:57;;;;;;;13.27;9.10;;;7.80;99.90;;;;;;5027278;28;20049;-77
2022/04/25 04:44:23;;;;;;;15.70;7.85;;;7.80;99.90;;;;;;5028649;28;20040;-77
2022/04/25 04:46:48;;;;;;;16.67;9.02;;;7.80;99.90;;;;;;5026897;28;20040;-76
2022/04/25 04:49:15;;;;;;;14.57;8.15;;;7.80;99.90;;;;;;5014281;28;20052;-77
2022/04/25 04:51:40;;;;;;;11.13;7.15;;;7.90;99.90;;;;;;5027140;28;20041;-77
2022/04/25 04:54:06;;;;;;;10.85;7.32;;;7.80;99.90;;;;;;5028524;28;20167;-77
2022/04/25 04:56:32;;;;;;;19.13;9.52;;;7.80;99.90;;;;;;5029683;28;20050;-77
2022/04/25 04:58:58;;;;;;;11.02;7.22;;;7.80;99.90;;;;;;5011483;28;20033;-76
2022/04/25 05:01:25;;;;;;;11.25;7.53;;;7.80;99.90;;;;;;5028334;28;20121;-76
2022/04/25 05:03:51;;;;;;;10.70;8.32;;;7.70;99.90;;;;;;5044899;28;20049;-76
2022/04/25 05:06:16;;;;;;;11.32;7.80;;;7.70;99.90;;;;;;5028544;28;20090;-76
2022/04/25 05:08:42;;;;;;;12.63;8.27;;;7.70;99.90;;;;;;5043138;28;20043;-76
2022/04/25 05:11:09;;;;;;;12.95;8.10;;;7.70;99.90;;;;;;5028562;28;20037;-76
2022/04/25 05:13:36;;;;;;;14.30;8.95;;;7.70;99.90;;;;;;5027874;28;20460;-76
2022/04/25 05:16:03;;;;;;;12.70;8.57;;;7.70;99.90;;;;;;5028768;28;20049;-76
2022/04/25 05:18:32;;;;;;;17.35;9.15;;;7.70;99.90;;;;;;5028477;28;20056;-76
2022/04/25 05:20:58;;;;;;;14.43;9.52;;;7.70;99.90;;;;;;5031931;28;20044;-76
2022/04/25 05:23:24;;;;;;;14.52;8.82;;;7.70;99.90;;;;;;5027138;28;20033;-76
2022/04/25 05:25:49;;;;;;;13.93;9.68;;;7.70;99.90;;;;;;5031626;28;20037;-76
2022/04/25 05:28:15;;;;;;;14.95;9.27;;;7.70;99.90;;;;;;5029900;28;20453;-76
2022/04/25 05:30:42;;;;;;;13.05;8.40;;;7.80;99.90;;;;;;5027966;28;20339;-76
2022/04/25 05:33:07;;;;;;;14.55;9.70;;;7.80;99.90;;;;;;5027353;28;20041;-76
2022/04/25 05:35:33;;;;;;;17.60;9.90;;;7.90;99.90;;;;;;5029786;28;20072;-76
2022/04/25 05:38:00;;;;;;;11.75;8.10;;;7.90;99.90;;;;;;5029437;28;20423;-76
2022/04/25 05:40:27;;;;;;;12.85;7.72;;;7.90;99.90;;;;;;5028227;28;20037;-76
2022/04/25 05:42:55;;;;;;;12.38;9.18;;;8.00;99.90;;;;;;5027070;28;20493;-76
2022/04/25 05:45:22;;;;;;;15.05;8.10;;;8.10;99.90;;;;;;5028974;28;20140;-76
2022/04/25 05:47:49;;;;;;;19.13;8.45;;;8.10;99.90;;;;;;5028616;28;20049;-76
2022/04/25 05:53:00;;;;;;;22.20;10.13;;;8.30;99.90;;;;;;5027978;28;20121;-76
2022/04/25 05:55:27;;;;;;;16.23;8.82;;;8.40;99.90;;;;;;5023793;28;20038;-76
2022/04/25 05:57:52;;;;;;;17.80;9.48;;;8.50;99.90;;;;;;5030668;28;20049;-76
2022/04/25 06:00:18;;;;;;;14.68;8.80;;;8.50;99.90;;;;;;5025326;28;20102;-76
2022/04/25 06:02:44;;;;;;;12.25;7.90;;;8.50;99.90;;;;;;5026909;28;20092;-77
2022/04/25 06:05:11;;;;;;;15.13;8.68;;;8.40;99.90;;;;;;5025913;28;20042;-76
2022/04/25 06:07:40;;;;;;;10.90;7.80;;;8.40;99.90;;;;;;5028543;28;20628;-76
2022/04/25 06:10:06;;;;;;;12.57;8.68;;;8.40;99.90;;;;;;5027706;28;20040;-76
2022/04/25 06:12:32;;;;;;;9.82;7.00;;;8.30;99.90;;;;;;5028329;28;20053;-76
2022/04/25 06:15:00;;;;;;;14.00;8.50;;;8.30;99.90;;;;;;5031015;28;20124;-76
2022/04/25 06:17:26;;;;;;;12.05;7.68;;;8.30;99.90;;;;;;5026069;28;20786;-76
2022/04/25 06:19:52;;;;;;;11.55;8.60;;;8.20;99.90;;;;;;5027543;28;20120;-76
2022/04/25 06:22:18;;;;;;;15.80;8.85;;;8.20;99.90;;;;;;5022946;28;20048;-76
2022/04/25 06:24:44;;;;;;;12.55;7.85;;;8.20;99.90;;;;;;5026332;28;20037;-76
2022/04/25 06:27:09;;;;;;;8.65;6.53;;;8.10;99.90;;;;;;5025583;28;20099;-76
2022/04/25 06:29:35;;;;;;;12.07;7.30;;;8.10;99.90;;;;;;5025737;28;20094;-76
2022/04/25 06:32:05;;;;;;;15.98;8.63;;;8.10;99.90;;;;;;5027032;28;20038;-76
2022/04/25 06:34:31;;;;;;;12.23;7.13;;;8.10;99.90;;;;;;5025839;28;20038;-76
2022/04/25 06:36:57;;;;;;;11.73;7.25;;;8.00;99.90;;;;;;5026609;28;20207;-76
2022/04/25 06:39:23;;;;;;;8.63;7.03;;;8.10;99.90;;;;;;5026005;28;20069;-77
2022/04/25 06:41:48;;;;;;;11.25;7.00;;;8.00;99.90;;;;;;5027764;28;20064;-76
2022/04/25 06:44:14;;;;;;;10.43;7.38;;;8.00;99.90;;;;;;5028165;28;20048;-76
2022/04/25 06:46:39;;;;;;;13.82;7.53;;;8.00;99.90;;;;;;5027200;28;20040;-76
2022/04/25 06:49:20;;;;;;;11.93;6.85;;;8.00;99.90;;;;;;5025945;28;20042;-76
2022/04/25 06:51:53;;;;;;;9.50;5.57;;;8.00;99.90;;;;;;5025764;28;20795;-76
2022/04/25 06:54:20;;;;;;;11.85;7.43;;;7.90;99.90;;;;;;5023856;28;20465;-76
2022/04/25 06:56:46;;;;;;;12.57;7.00;;;8.00;99.90;;;;;;5025289;28;20095;-77
2022/04/25 06:59:12;;;;;;;10.50;6.45;;;7.90;99.90;;;;;;5024967;28;20052;-76
2022/04/25 07:01:39;;;;;;;12.45;8.30;;;7.90;99.90;;;;;;5028408;28;20037;-77
2022/04/25 07:04:06;;;;;;;10.63;7.38;;;7.90;99.90;;;;;;5025272;28;20045;-80
2022/04/25 07:06:33;;;;;;;12.10;7.43;;;7.90;99.90;;;;;;5027493;28;20037;-78
2022/04/25 07:08:58;;;;;;;10.57;7.43;;;7.80;99.90;;;;;;5026843;28;20111;-78
2022/04/25 07:11:24;;;;;;;14.38;8.55;;;7.70;99.90;;;;;;5011880;28;20037;-77
2022/04/25 07:13:49;;;;;;;14.95;9.43;;;7.70;99.90;;;;;;5025437;28;20373;-78
2022/04/25 07:16:15;;;;;;;14.55;8.23;;;7.80;99.90;;;;;;5028648;28;20459;-77
2022/04/25 07:18:41;;;;;;;15.05;7.80;;;7.80;99.90;;;;;;5032323;28;20074;-77
2022/04/25 07:29:22;;;;;;;21.27;11.88;;;8.10;99.90;;;;;;5026925;28;20335;-77
2022/04/25 07:31:50;;;;;;;56.55;32.70;;;8.10;99.90;;;;;;5025093;28;20435;-77
2022/04/25 07:34:18;;;;;;;71.20;46.50;;;8.20;99.90;;;;;;5024958;28;20037;-77
2022/04/25 07:36:43;;;;;;;129.80;84.22;;;8.30;99.90;;;;;;5023776;28;20061;-78
2022/04/25 07:39:09;;;;;;;14.90;8.63;;;8.30;99.90;;;;;;5023293;28;20076;-77
2022/04/25 07:41:34;;;;;;;11.05;6.72;;;8.30;99.90;;;;;;5024107;28;20488;-77
2022/04/25 07:44:00;;;;;;;13.93;7.35;;;8.30;99.90;;;;;;5024359;28;20518;-77
2022/04/25 07:46:26;;;;;;;8.63;6.65;;;8.20;99.90;;;;;;5024199;28;20042;-77
2022/04/25 07:48:52;;;;;;;11.45;7.47;;;8.10;99.90;;;;;;5010360;28;20041;-77
2022/04/25 07:51:18;;;;;;;14.13;7.50;;;8.10;99.90;;;;;;5024603;28;20037;-77
2022/04/25 07:53:44;;;;;;;12.73;7.88;;;8.00;99.90;;;;;;5032219;28;20506;-77
2022/04/25 07:56:10;;;;;;;14.82;8.45;;;8.00;99.90;;;;;;5023156;28;20033;-77
2022/04/25 07:58:36;;;;;;;12.75;7.68;;;8.00;99.90;;;;;;5027113;28;20048;-77
2022/04/25 08:01:03;;;;;;;11.75;7.47;;;8.00;99.90;;;;;;5010020;28;20598;-77
2022/04/25 08:03:29;;;;;;;11.52;8.23;;;8.10;99.90;;;;;;5049001;23;20404;-79
2022/04/25 08:05:55;;;;;;;14.05;7.93;;;8.10;99.90;;;;;;5034334;28;20045;-79
2022/04/25 08:08:21;;;;;;;14.93;8.52;;;8.20;99.90;;;;;;5022335;28;20042;-79
2022/04/25 08:10:46;;;;;;;11.05;6.60;;;8.30;99.90;;;;;;5022766;28;20046;-79
2022/04/25 08:18:40;;;;;;;11.65;6.72;;;8.50;99.90;;;;;;5019214;28;20474;-80
2022/04/25 08:21:05;;;;;;;11.07;7.03;;;8.50;99.90;;;;;;5019609;28;20040;-79
2022/04/25 08:23:31;;;;;;;10.82;6.22;;;8.50;99.90;;;;;;5021143;28;20103;-79
2022/04/25 08:25:57;;;;;;;12.90;6.65;;;8.60;99.90;;;;;;5024229;28;20041;-78
2022/04/25 08:28:23;;;;;;;9.48;6.72;;;8.60;99.90;;;;;;5004135;28;20033;-79
2022/04/25 08:30:48;;;;;;;11.10;5.97;;;8.70;99.90;;;;;;5022901;28;20129;-79
2022/04/25 08:33:14;;;;;;;10.05;6.95;;;8.80;99.90;;;;;;5025940;28;20124;-79
2022/04/25 08:35:40;;;;;;;158.10;92.75;;;8.80;99.90;;;;;;5020089;28;20034;-79
2022/04/25 08:38:06;;;;;;;14.23;8.45;;;8.80;99.90;;;;;;5015769;28;20057;-80
2022/04/25 08:40:32;;;;;;;413.33;241.70;;;8.80;99.90;;;;;;5027863;28;20045;-80
2022/04/25 08:42:59;;;;;;;27.38;17.13;;;8.70;99.90;;;;;;5033425;28;20042;-80
2022/04/25 08:45:27;;;;;;;46.20;29.33;;;8.70;99.90;;;;;;5027669;28;20092;-80
2022/04/25 08:47:54;;;;;;;31.02;20.27;;;8.60;99.90;;;;;;5024508;28;20488;-79
2022/04/25 08:50:21;;;;;;;17.20;11.38;;;8.70;99.90;;;;;;5009718;28;20053;-80
2022/04/25 08:52:47;;;;;;;27.58;16.85;;;8.60;99.90;;;;;;5011493;28;20041;-79
2022/04/25 08:55:14;;;;;;;49.05;31.63;;;8.50;99.90;;;;;;5022485;28;20449;-79
2022/04/25 08:57:42;;;;;;;23.23;16.67;;;8.40;99.90;;;;;;5021724;28;20042;-78
2022/04/25 09:00:08;;;;;;;11.85;7.38;;;8.40;99.90;;;;;;5021927;28;20450;-79
2022/04/25 09:02:34;;;;;;;12.18;8.05;;;8.30;99.90;;;;;;5029648;28;20048;-80
2022/04/25 09:05:01;;;;;;;13.25;6.65;;;8.30;99.90;;;;;;5018837;28;20053;-80
2022/04/25 09:07:27;;;;;;;13.55;6.93;;;8.20;99.90;;;;;;5030160;28;20038;-79
2022/04/25 09:09:54;;;;;;;9.60;6.13;;;8.30;99.90;;;;;;5030131;28;20491;-78
2022/04/25 09:12:19;;;;;;;11.27;6.32;;;8.30;99.90;;;;;;5028509;28;20037;-78
2022/04/25 09:14:46;;;;;;;12.70;6.07;;;8.30;99.90;;;;;;5006093;28;20400;-80
2022/04/25 09:17:12;;;;;;;11.50;5.95;;;8.30;99.90;;;;;;5028598;28;20045;-79
2022/04/25 09:19:39;;;;;;;8.73;6.18;;;8.40;99.90;;;;;;5023328;28;20044;-79
2022/04/25 09:22:09;;;;;;;13.35;5.82;;;8.40;99.90;;;;;;5028592;28;20431;-79
2022/04/25 09:24:44;;;;;;;8.25;5.78;;;8.50;99.90;;;;;;5022203;28;20042;-79
2022/04/25 09:27:17;;;;;;;9.95;5.80;;;8.60;99.90;;;;;;5015901;28;20048;-79
2022/04/25 09:29:42;;;;;;;6.22;4.65;;;8.70;99.90;;;;;;5017611;28;20424;-78
2022/04/25 09:32:09;;;;;;;6.72;4.55;;;8.80;99.90;;;;;;5023186;28;20229;-76
2022/04/25 09:37:43;;;;;;;12.18;6.47;;;8.90;99.90;;;;;;5016145;28;20041;-79
2022/04/25 09:40:09;;;;;;;6.25;4.05;;;9.00;99.90;;;;;;5030702;28;20049;-77
2022/04/25 09:42:36;;;;;;;10.00;4.93;;;9.20;99.90;;;;;;5031248;28;20052;-77
2022/04/25 09:45:03;;;;;;;9.63;5.43;;;9.30;99.90;;;;;;5040689;28;20534;-77
2022/04/25 09:47:34;;;;;;;11.85;4.05;;;9.40;99.90;;;;;;5028775;28;20555;-77
2022/04/25 09:50:13;;;;;;;8.00;5.15;;;9.60;99.90;;;;;;5031874;28;20064;-77
2022/04/25 09:52:59;;;;;;;9.88;5.05;;;9.60;99.90;;;;;;5031754;28;20354;-77
2022/04/25 09:55:27;;;;;;;8.85;4.30;;;9.80;99.90;;;;;;5022247;28;20045;-77
2022/04/25 09:57:54;;;;;;;5.22;4.32;;;10.00;99.90;;;;;;5030086;28;20045;-77
2022/04/25 10:00:36;;;;;;;6.45;4.25;;;10.10;99.90;;;;;;5032839;28;20041;-77
2022/04/25 10:03:03;;;;;;;6.93;4.30;;;10.30;99.90;;;;;;5019753;28;20038;-77
2022/04/25 10:05:43;;;;;;;33.85;21.05;;;10.40;99.90;;;;;;5036435;28;20116;-75
2022/04/25 10:08:11;;;;;;;10.98;7.45;;;10.50;99.90;;;;;;5022390;28;20069;-77
2022/04/25 10:10:48;;;;;;;188.10;116.07;;;10.60;99.90;;;;;;5019510;28;20483;-77
2022/04/25 10:13:14;;;;;;;138.15;83.97;;;10.60;99.90;;;;;;5027649;28;20418;-77
2022/04/25 10:15:41;;;;;;;39.85;28.52;;;10.60;99.90;;;;;;5032279;28;20052;-76
2022/04/25 10:18:07;;;;;;;6.25;5.05;;;10.70;99.90;;;;;;5028248;28;20045;-76
2022/04/25 10:20:36;;;;;;;9.35;4.63;;;10.90;99.90;;;;;;5028187;28;20495;-76
2022/04/25 10:23:05;;;;;;;9.38;5.18;;;11.00;99.90;;;;;;5030980;28;20116;-77
2022/04/25 10:25:31;;;;;;;6.93;5.30;;;11.20;99.90;;;;;;5030636;28;20133;-77
2022/04/25 10:28:01;;;;;;;7.97;5.68;;;11.30;99.90;;;;;;5030763;28;20467;-76
2022/04/25 10:30:32;;;;;;;9.05;5.72;;;11.50;99.90;;;;;;5030804;28;20092;-76
2022/04/25 10:33:20;;;;;;;7.68;5.35;;;11.50;99.90;;;;;;5031024;28;20132;-77
2022/04/25 10:35:50;;;;;;;5.78;4.75;;;11.50;99.90;;;;;;5038712;28;20371;-77
2022/04/25 10:38:48;;;;;;;9.02;5.53;;;11.60;99.90;;;;;;5030800;28;20041;-77
2022/04/25 10:44:29;;;;;;;6.97;5.60;;;11.70;99.90;;;;;;5022603;28;20046;-77
2022/04/25 10:47:05;;;;;;;;;;;11.90;99.90;;;;;;5013033;28;20407;-77
2022/04/25 10:49:32;;;;;;;8.57;6.30;;;12.00;99.90;;;;;;5020209;28;19956;-77
2022/04/25 10:51:59;;;;;;;5.82;4.97;;;12.10;99.90;;;;;;5009472;28;20045;-77
2022/04/25 10:54:28;;;;;;;5.40;4.43;;;12.10;99.90;;;;;;5030461;28;20077;-77
2022/04/25 10:57:09;;;;;;;8.15;5.63;;;12.10;99.90;;;;;;5021555;28;20116;-76
2022/04/25 10:59:37;;;;;;;7.28;5.22;;;12.10;99.90;;;;;;5036938;28;20071;-76
2022/04/25 11:02:20;;;;;;;6.72;5.28;;;12.20;99.90;;;;;;5024054;28;20041;-78
2022/04/25 11:04:46;;;;;;;7.80;4.68;;;12.20;99.90;;;;;;5040034;28;20069;-77
2022/04/25 11:07:23;;;;;;;6.05;4.55;;;12.20;99.90;;;;;;5024056;28;20087;-77
2022/04/25 11:09:50;;;;;;;7.90;5.30;;;12.20;99.90;;;;;;5030151;28;20151;-77
2022/04/25 11:12:16;;;;;;;6.13;4.95;;;12.20;99.90;;;;;;5029496;28;20075;-76
2022/04/25 11:15:01;;;;;;;6.85;4.88;;;12.20;99.90;;;;;;5017097;28;20042;-77
2022/04/25 11:17:27;;;;;;;10.90;5.78;;;12.20;99.90;;;;;;5029915;28;20055;-78
2022/04/25 11:19:55;;;;;;;8.02;5.68;;;12.20;99.90;;;;;;5029957;28;20052;-77
2022/04/25 11:22:31;;;;;;;4.95;3.95;;;12.30;99.90;;;;;;5029990;28;20041;-77
2022/04/25 11:25:17;;;;;;;6.20;4.50;;;12.50;99.90;;;;;;5015869;28;20045;-77
2022/04/25 11:28:01;;;;;;;;;;;12.60;99.90;;;;;;5034262;28;20045;-77
2022/04/25 11:30:27;;;;;;;5.35;4.15;;;12.80;99.90;;;;;;5020356;28;19960;-77
2022/04/25 11:33:00;;;;;;;11.00;5.15;;;13.00;99.90;;;;;;5028222;28;20116;-77
2022/04/25 11:35:26;;;;;;;5.80;4.65;;;13.20;99.90;;;;;;5024455;28;20057;-77
2022/04/25 11:37:56;;;;;;;4.35;3.45;;;13.20;99.90;;;;;;5009481;28;20049;-79
2022/04/25 11:40:22;;;;;;;6.18;4.30;;;13.30;99.90;;;;;;5032066;28;20559;-78
2022/04/25 11:42:48;;;;;;;7.53;4.47;;;13.40;99.90;;;;;;5024277;28;20163;-78
2022/04/25 11:45:14;;;;;;;7.75;4.85;;;13.60;99.90;;;;;;5016964;28;20147;-78
2022/04/25 11:47:39;;;;;;;6.68;5.22;;;13.60;99.90;;;;;;5030807;28;20417;-78
2022/04/25 11:50:08;;;;;;;5.72;4.05;;;13.60;99.90;;;;;;5027141;28;20155;-77
2022/04/25 11:52:34;;;;;;;8.65;4.63;;;13.60;99.90;;;;;;5029645;28;20045;-78
2022/04/25 11:54:59;;;;;;;8.05;5.07;;;13.60;99.90;;;;;;5030443;28;20045;-80
2022/04/25 11:57:27;;;;;;;7.50;4.25;;;13.70;99.90;;;;;;5029129;28;20049;-77
2022/04/25 12:00:08;;;;;;;7.53;4.45;;;13.90;99.90;;;;;;5029284;28;20029;-78
2022/04/25 12:02:35;;;;;;;5.45;4.53;;;14.30;97.20;;;;;;5043030;28;20391;-77
2022/04/25 12:05:01;;;;;;;9.73;5.85;;;14.50;98.50;;;;;;5027407;28;20491;-77
2022/04/25 12:07:26;;;;;;;14.13;6.18;;;14.60;98.40;;;;;;5026629;28;20092;-77
2022/04/25 12:15:40;;;;;;;6.07;4.07;;;14.70;95.80;;;;;;5028890;28;20057;-77
2022/04/25 12:18:26;;;;;;;6.00;5.07;;;14.70;95.30;;;;;;5028832;28;20049;-76
2022/04/25 12:20:59;;;;;;;10.80;6.18;;;14.60;93.90;;;;;;5027780;28;20444;-77
2022/04/25 12:23:31;;;;;;;6.82;5.05;;;14.40;93.60;;;;;;5028931;28;20095;-77
2022/04/25 12:25:58;;;;;;;7.30;5.22;;;14.30;95.10;;;;;;5025470;28;20492;-77
2022/04/25 12:28:26;;;;;;;7.10;4.70;;;14.20;95.60;;;;;;5028495;28;20045;-78
2022/04/25 12:30:54;;;;;;;8.75;4.45;;;14.10;95.50;;;;;;5027752;28;20057;-78
2022/04/25 12:33:41;;;;;;;8.25;4.88;;;14.10;95.00;;;;;;5024924;28;20547;-78
2022/04/25 12:36:16;;;;;;;7.40;5.38;;;14.30;94.40;;;;;;5026540;28;20507;-78
2022/04/25 12:38:53;;;;;;;7.45;4.95;;;14.10;95.70;;;;;;5027463;28;20123;-78
2022/04/25 12:41:21;;;;;;;8.63;5.07;;;14.00;95.10;;;;;;5025473;28;20465;-77
2022/04/25 12:43:49;;;;;;;6.97;4.85;;;14.00;95.90;;;;;;5010730;28;20053;-79
2022/04/25 12:46:36;;;;;;;6.32;4.93;;;13.90;95.90;;;;;;5027246;28;20077;-78
2022/04/25 12:49:11;;;;;;;10.55;5.75;;;13.80;96.10;;;;;;5022645;28;20570;-78
2022/04/25 12:51:38;;;;;;;10.68;6.45;;;13.70;96.50;;;;;;5023596;28;20077;-78
2022/04/25 12:54:07;;;;;;;6.85;5.85;;;13.80;97.20;;;;;;5025112;28;20084;-78
2022/04/25 12:56:35;;;;;;;9.15;5.30;;;13.80;97.30;;;;;;5028454;28;20088;-78
2022/04/25 12:59:01;;;;;;;9.43;6.55;;;13.90;98.30;;;;;;5028340;28;20041;-78
2022/04/25 13:01:34;;;;;;;7.25;5.75;;;14.00;98.00;;;;;;5027534;28;20080;-78
2022/04/25 13:04:13;;;;;;;8.68;5.55;;;14.10;96.70;;;;;;5029282;28;20047;-79
2022/04/25 13:06:41;;;;;;;8.75;5.85;;;14.00;97.80;;;;;;5032007;28;20159;-78
2022/04/25 13:09:08;;;;;;;8.60;6.40;;;14.10;96.80;;;;;;5033293;28;20108;-78
2022/04/25 13:11:34;;;;;;;11.43;7.07;;;14.20;97.50;;;;;;5028904;28;20081;-78
2022/04/25 13:14:00;;;;;;;9.80;5.72;;;14.20;97.30;;;;;;5029323;28;20393;-78
2022/04/25 13:16:26;;;;;;;12.57;7.03;;;14.40;95.80;;;;;;5032706;28;20124;-78
2022/04/25 13:18:52;;;;;;;8.18;6.25;;;14.40;95.70;;;;;;5034218;28;20447;-78